Time,TemperatureF,DewpointF,PressureIn,WindDirection,WindDirectionDegrees,WindSpeedMPH,WindSpeedGustMPH,Humidity,HourlyPrecipIn,Conditions,Clouds,dailyrainin,SoftwareType,DateUTC
2013-01-02 00:02:00,45.7,37.6,30.22,SSW,193,2.0,3.0,73,0.00,,,0.00,meteohub,2013-01-02 08:02:00,
2013-01-02 00:07:00,45.5,37.4,30.22,SE,139,0.0,3.0,73,0.00,,,0.00,meteohub,2013-01-02 08:07:00,
2013-01-02 00:12:00,45.5,37.8,30.22,SSE,168,1.0,4.0,74,0.00,,,0.00,meteohub,2013-01-02 08:12:00,
2013-01-02 00:17:00,45.7,37.9,30.22,SE,143,2.0,5.0,74,0.00,,,0.00,meteohub,2013-01-02 08:17:00,
2013-01-02 00:22:00,45.7,37.6,30.23,South,171,1.0,7.0,73,0.00,,,0.00,meteohub,2013-01-02 08:22:00,
2013-01-02 00:27:00,45.7,37.6,30.23,South,186,1.0,7.0,73,0.00,,,0.00,meteohub,2013-01-02 08:27:00,
2013-01-02 00:32:00,45.7,37.9,30.23,South,183,3.0,5.0,74,0.00,,,0.00,meteohub,2013-01-02 08:32:00,
2013-01-02 00:37:00,45.9,38.3,30.23,SE,136,4.0,6.0,75,0.00,,,0.00,meteohub,2013-01-02 08:37:00,
2013-01-02 00:42:00,46.0,38.5,30.22,SE,135,3.0,6.0,75,0.00,,,0.00,meteohub,2013-01-02 08:42:00,
2013-01-02 00:47:00,45.9,38.3,30.23,ESE,102,2.0,6.0,75,0.00,,,0.00,meteohub,2013-01-02 08:47:00,
2013-01-02 00:52:00,45.9,38.3,30.22,East,81,0.0,6.0,75,0.00,,,0.00,meteohub,2013-01-02 08:52:00,
2013-01-02 00:57:00,45.9,38.7,30.22,ESE,103,1.0,5.0,76,0.00,,,0.00,meteohub,2013-01-02 08:57:00,
2013-01-02 01:02:00,45.9,39.0,30.23,East,95,0.0,4.0,77,0.00,,,0.00,meteohub,2013-01-02 09:02:00,
2013-01-02 01:07:00,45.5,38.7,30.22,ESE,118,3.0,4.0,77,0.00,,,0.00,meteohub,2013-01-02 09:07:00,
2013-01-02 01:12:00,45.3,38.5,30.22,SSE,153,2.0,4.0,77,0.00,,,0.00,meteohub,2013-01-02 09:12:00,
2013-01-02 01:17:00,45.1,38.3,30.22,SE,136,0.0,4.0,77,0.00,,,0.00,meteohub,2013-01-02 09:17:00,
2013-01-02 01:22:00,45.0,38.1,30.22,East,87,5.0,5.0,77,0.00,,,0.00,meteohub,2013-01-02 09:22:00,
2013-01-02 01:27:00,45.0,37.9,30.22,SSE,156,1.0,5.0,76,0.00,,,0.00,meteohub,2013-01-02 09:27:00,
2013-01-02 01:32:00,45.0,37.6,30.22,South,169,2.0,5.0,75,0.00,,,0.00,meteohub,2013-01-02 09:32:00,
2013-01-02 01:37:00,45.0,37.6,30.22,SSE,153,0.0,5.0,75,0.00,,,0.00,meteohub,2013-01-02 09:37:00,
2013-01-02 01:42:00,44.8,37.9,30.22,SSE,156,1.0,5.0,77,0.00,,,0.00,meteohub,2013-01-02 09:42:00,
2013-01-02 01:47:00,44.8,38.3,30.22,South,185,1.0,5.0,78,0.00,,,0.00,meteohub,2013-01-02 09:47:00,
2013-01-02 01:52:00,44.4,37.9,30.21,ESE,121,1.0,3.0,78,0.00,,,0.00,meteohub,2013-01-02 09:52:00,
2013-01-02 01:57:00,44.2,37.8,30.21,SSE,150,3.0,3.0,78,0.00,,,0.00,meteohub,2013-01-02 09:57:00,
2013-01-02 02:02:00,44.4,37.6,30.21,SW,217,0.0,3.0,77,0.00,,,0.00,meteohub,2013-01-02 10:02:00,
2013-01-02 02:07:00,44.4,38.3,30.22,SE,128,1.0,3.0,79,0.00,,,0.00,meteohub,2013-01-02 10:07:00,
2013-01-02 02:12:00,44.4,38.3,30.22,ESE,105,0.0,3.0,79,0.00,,,0.00,meteohub,2013-01-02 10:12:00,
2013-01-02 02:17:00,44.2,37.8,30.22,ESE,108,0.0,3.0,78,0.00,,,0.00,meteohub,2013-01-02 10:17:00,
2013-01-02 02:22:00,44.4,37.4,30.22,ESE,120,1.0,7.0,76,0.00,,,0.00,meteohub,2013-01-02 10:22:00,
2013-01-02 02:27:00,44.4,37.6,30.22,ENE,58,0.0,7.0,77,0.00,,,0.00,meteohub,2013-01-02 10:27:00,
2013-01-02 02:32:00,44.1,37.4,30.22,NE,44,0.0,7.0,77,0.00,,,0.00,meteohub,2013-01-02 10:32:00,
2013-01-02 02:37:00,44.4,36.0,30.22,NNE,33,1.0,7.0,72,0.00,,,0.00,meteohub,2013-01-02 10:37:00,
2013-01-02 02:42:00,45.0,35.8,30.22,ESE,122,3.0,7.0,70,0.00,,,0.00,meteohub,2013-01-02 10:42:00,
2013-01-02 02:47:00,45.0,36.1,30.22,East,82,6.0,7.0,71,0.00,,,0.00,meteohub,2013-01-02 10:47:00,
2013-01-02 02:52:00,45.1,36.0,30.22,SE,143,1.0,8.0,70,0.00,,,0.00,meteohub,2013-01-02 10:52:00,
2013-01-02 02:57:00,45.1,35.6,30.22,SE,142,2.0,8.0,69,0.00,,,0.00,meteohub,2013-01-02 10:57:00,
2013-01-02 03:02:00,45.3,35.8,30.21,SE,134,2.0,8.0,69,0.00,,,0.00,meteohub,2013-01-02 11:02:00,
2013-01-02 03:07:00,45.3,35.4,30.21,ESE,115,0.0,5.0,68,0.00,,,0.00,meteohub,2013-01-02 11:07:00,
2013-01-02 03:12:00,45.3,35.1,30.21,East,92,5.0,8.0,67,0.00,,,0.00,meteohub,2013-01-02 11:12:00,
2013-01-02 03:17:00,45.3,34.7,30.21,South,186,1.0,8.0,66,0.00,,,0.00,meteohub,2013-01-02 11:17:00,
2013-01-02 03:22:00,45.1,34.9,30.21,ENE,60,1.0,8.0,67,0.00,,,0.00,meteohub,2013-01-02 11:22:00,
2013-01-02 03:27:00,45.3,35.1,30.21,SSE,153,2.0,6.0,67,0.00,,,0.00,meteohub,2013-01-02 11:27:00,
2013-01-02 03:32:00,45.3,35.1,30.21,South,186,0.0,6.0,67,0.00,,,0.00,meteohub,2013-01-02 11:32:00,
2013-01-02 03:37:00,45.5,35.2,30.21,SE,145,3.0,6.0,67,0.00,,,0.00,meteohub,2013-01-02 11:37:00,
2013-01-02 03:42:00,45.7,34.5,30.20,SSE,159,1.0,4.0,65,0.00,,,0.00,meteohub,2013-01-02 11:42:00,
2013-01-02 03:47:00,45.9,33.6,30.20,SSW,197,1.0,4.0,62,0.00,,,0.00,meteohub,2013-01-02 11:47:00,
2013-01-02 03:52:00,46.0,33.3,30.20,ESE,117,2.0,4.0,61,0.00,,,0.00,meteohub,2013-01-02 11:52:00,
2013-01-02 03:57:00,46.2,33.4,30.20,SE,128,1.0,5.0,61,0.00,,,0.00,meteohub,2013-01-02 11:57:00,
2013-01-02 04:02:00,46.2,33.4,30.20,East,90,2.0,5.0,61,0.00,,,0.00,meteohub,2013-01-02 12:02:00,
2013-01-02 04:07:00,46.4,33.6,30.20,East,89,1.0,5.0,61,0.00,,,0.00,meteohub,2013-01-02 12:07:00,
2013-01-02 04:12:00,46.4,33.6,30.20,ESE,103,1.0,7.0,61,0.00,,,0.00,meteohub,2013-01-02 12:12:00,
2013-01-02 04:17:00,46.2,34.0,30.20,ESE,102,1.0,7.0,62,0.00,,,0.00,meteohub,2013-01-02 12:17:00,
2013-01-02 04:22:00,46.0,35.2,30.20,ESE,108,1.0,7.0,66,0.00,,,0.00,meteohub,2013-01-02 12:22:00,
2013-01-02 04:27:00,45.7,36.1,30.19,NNE,22,2.0,5.0,69,0.00,,,0.00,meteohub,2013-01-02 12:27:00,
2013-01-02 04:32:00,45.3,35.1,30.19,East,97,2.0,5.0,67,0.00,,,0.00,meteohub,2013-01-02 12:32:00,
2013-01-02 04:37:00,45.3,35.1,30.19,NNE,15,2.0,5.0,67,0.00,,,0.00,meteohub,2013-01-02 12:37:00,
2013-01-02 04:42:00,45.1,35.6,30.19,SSE,153,0.0,9.0,69,0.00,,,0.00,meteohub,2013-01-02 12:42:00,
2013-01-02 04:47:00,45.1,34.9,30.19,ESE,120,1.0,9.0,67,0.00,,,0.00,meteohub,2013-01-02 12:47:00,
2013-01-02 04:52:00,45.1,34.5,30.19,South,191,1.0,9.0,66,0.00,,,0.00,meteohub,2013-01-02 12:52:00,
2013-01-02 04:57:00,45.3,33.8,30.19,SE,145,0.0,4.0,64,0.00,,,0.00,meteohub,2013-01-02 12:57:00,
2013-01-02 05:02:00,45.3,33.8,30.19,SE,139,0.0,4.0,64,0.00,,,0.00,meteohub,2013-01-02 13:02:00,
2013-01-02 05:07:00,45.3,34.3,30.18,SSE,163,1.0,4.0,65,0.00,,,0.00,meteohub,2013-01-02 13:07:00,
2013-01-02 05:12:00,45.3,33.8,30.19,ESE,118,2.0,4.0,64,0.00,,,0.00,meteohub,2013-01-02 13:12:00,
2013-01-02 05:17:00,45.3,34.3,30.19,ESE,113,2.0,4.0,65,0.00,,,0.00,meteohub,2013-01-02 13:17:00,
2013-01-02 05:22:00,45.7,34.5,30.19,SE,139,1.0,7.0,65,0.00,,,0.00,meteohub,2013-01-02 13:22:00,
2013-01-02 05:27:00,45.7,34.5,30.19,East,94,0.0,7.0,65,0.00,,,0.00,meteohub,2013-01-02 13:27:00,
2013-01-02 05:32:00,45.9,35.1,30.19,ESE,116,2.0,7.0,66,0.00,,,0.00,meteohub,2013-01-02 13:32:00,
2013-01-02 05:37:00,45.7,35.4,30.18,SSE,154,0.0,4.0,67,0.00,,,0.00,meteohub,2013-01-02 13:37:00,
2013-01-02 05:42:00,45.1,34.9,30.18,SE,134,0.0,4.0,67,0.00,,,0.00,meteohub,2013-01-02 13:42:00,
2013-01-02 05:47:00,44.8,34.5,30.18,SSW,197,0.0,4.0,67,0.00,,,0.00,meteohub,2013-01-02 13:47:00,
2013-01-02 05:52:00,44.4,34.5,30.19,SSW,197,0.0,1.0,68,0.00,,,0.00,meteohub,2013-01-02 13:52:00,
2013-01-02 05:57:00,43.5,34.3,30.19,SW,231,0.0,1.0,70,0.00,,,0.00,meteohub,2013-01-02 13:57:00,
2013-01-02 06:02:00,42.8,34.3,30.19,SW,231,0.0,1.0,72,0.00,,,0.00,meteohub,2013-01-02 14:02:00,
2013-01-02 06:07:00,42.1,35.1,30.19,SSE,163,2.0,2.0,76,0.00,,,0.00,meteohub,2013-01-02 14:07:00,
2013-01-02 06:12:00,42.4,35.8,30.19,South,176,2.0,2.0,77,0.00,,,0.00,meteohub,2013-01-02 14:12:00,
2013-01-02 06:17:00,42.8,36.5,30.19,South,173,2.0,2.0,78,0.00,,,0.00,meteohub,2013-01-02 14:17:00,
2013-01-02 06:22:00,43.0,36.7,30.19,SW,222,1.0,2.0,78,0.00,,,0.00,meteohub,2013-01-02 14:22:00,
2013-01-02 06:27:00,42.8,36.7,30.19,SSE,149,0.0,2.0,79,0.00,,,0.00,meteohub,2013-01-02 14:27:00,
2013-01-02 06:32:00,42.6,37.2,30.19,South,191,1.0,2.0,81,0.00,,,0.00,meteohub,2013-01-02 14:32:00,
2013-01-02 06:37:00,42.6,37.6,30.19,South,189,0.0,4.0,82,0.00,,,0.00,meteohub,2013-01-02 14:37:00,
2013-01-02 06:42:00,42.4,37.4,30.19,SSW,194,0.0,4.0,82,0.00,,,0.00,meteohub,2013-01-02 14:42:00,
2013-01-02 06:47:00,42.1,37.2,30.19,SSW,195,0.0,4.0,83,0.00,,,0.00,meteohub,2013-01-02 14:47:00,
2013-01-02 06:52:00,41.5,36.7,30.19,SSW,194,0.0,2.0,83,0.00,,,0.00,meteohub,2013-01-02 14:52:00,
2013-01-02 06:57:00,41.2,37.0,30.19,SSW,195,0.0,0.0,85,0.00,,,0.00,meteohub,2013-01-02 14:57:00,
2013-01-02 07:02:00,41.4,37.6,30.19,SSW,201,1.0,1.0,86,0.00,,,0.00,meteohub,2013-01-02 15:02:00,
2013-01-02 07:07:00,41.7,37.2,30.19,SSE,153,0.0,2.0,84,0.00,,,0.00,meteohub,2013-01-02 15:07:00,
2013-01-02 07:12:00,41.5,37.0,30.20,SSE,153,0.0,2.0,84,0.00,,,0.00,meteohub,2013-01-02 15:12:00,
2013-01-02 07:17:00,41.0,36.9,30.19,SSE,153,0.0,2.0,85,0.00,,,0.00,meteohub,2013-01-02 15:17:00,
2013-01-02 07:22:00,40.5,36.7,30.19,SSE,155,0.0,1.0,86,0.00,,,0.00,meteohub,2013-01-02 15:22:00,
2013-01-02 07:27:00,40.5,36.7,30.19,South,184,0.0,1.0,86,0.00,,,0.00,meteohub,2013-01-02 15:27:00,
2013-01-02 07:32:00,40.5,36.7,30.20,South,183,0.0,1.0,86,0.00,,,0.00,meteohub,2013-01-02 15:32:00,
2013-01-02 07:37:00,40.5,36.3,30.20,South,177,0.0,1.0,85,0.00,,,0.00,meteohub,2013-01-02 15:37:00,
2013-01-02 07:42:00,40.3,36.5,30.20,South,177,0.0,0.0,86,0.00,,,0.00,meteohub,2013-01-02 15:42:00,
2013-01-02 07:47:00,39.9,36.1,30.20,East,84,0.0,0.0,86,0.00,,,0.00,meteohub,2013-01-02 15:47:00,
2013-01-02 07:52:00,39.9,35.8,30.21,East,88,0.0,0.0,85,0.00,,,0.00,meteohub,2013-01-02 15:52:00,
2013-01-02 07:57:00,40.1,36.3,30.21,SSE,165,0.0,0.0,86,0.00,,,0.00,meteohub,2013-01-02 15:57:00,
2013-01-02 08:02:00,41.4,36.5,30.21,ESE,119,2.0,2.0,83,0.00,,,0.00,meteohub,2013-01-02 16:02:00,
2013-01-02 08:07:00,42.6,37.2,30.21,ESE,119,1.0,3.0,81,0.00,,,0.00,meteohub,2013-01-02 16:07:00,
2013-01-02 08:12:00,43.2,37.4,30.21,SE,143,1.0,3.0,80,0.00,,,0.00,meteohub,2013-01-02 16:12:00,
2013-01-02 08:17:00,43.7,37.6,30.21,SSE,152,1.0,3.0,79,0.00,,,0.00,meteohub,2013-01-02 16:17:00,
2013-01-02 08:22:00,44.1,37.6,30.21,SSE,160,0.0,2.0,78,0.00,,,0.00,meteohub,2013-01-02 16:22:00,
2013-01-02 08:27:00,44.6,37.8,30.21,SE,135,2.0,3.0,77,0.00,,,0.00,meteohub,2013-01-02 16:27:00,
2013-01-02 08:32:00,45.0,37.9,30.21,South,177,0.0,4.0,76,0.00,,,0.00,meteohub,2013-01-02 16:32:00,
2013-01-02 08:37:00,45.3,37.9,30.21,SE,138,1.0,4.0,75,0.00,,,0.00,meteohub,2013-01-02 16:37:00,
2013-01-02 08:42:00,45.7,37.9,30.21,SE,146,1.0,4.0,74,0.00,,,0.00,meteohub,2013-01-02 16:42:00,
2013-01-02 08:47:00,45.9,38.1,30.21,SSE,157,0.0,4.0,74,0.00,,,0.00,meteohub,2013-01-02 16:47:00,
2013-01-02 08:52:00,46.2,38.1,30.21,ESE,113,1.0,4.0,73,0.00,,,0.00,meteohub,2013-01-02 16:52:00,
2013-01-02 08:57:00,46.6,37.8,30.22,South,186,1.0,4.0,71,0.00,,,0.00,meteohub,2013-01-02 16:57:00,
2013-01-02 09:02:00,46.9,38.1,30.22,SSW,207,1.0,4.0,71,0.00,,,0.00,meteohub,2013-01-02 17:02:00,
2013-01-02 09:07:00,47.3,38.7,30.22,SE,136,3.0,4.0,72,0.00,,,0.00,meteohub,2013-01-02 17:07:00,
2013-01-02 09:12:00,47.5,38.5,30.22,SE,146,2.0,4.0,71,0.00,,,0.00,meteohub,2013-01-02 17:12:00,
2013-01-02 09:17:00,47.7,38.7,30.22,SE,141,3.0,4.0,71,0.00,,,0.00,meteohub,2013-01-02 17:17:00,
2013-01-02 09:22:00,47.8,38.8,30.22,SSE,165,3.0,4.0,71,0.00,,,0.00,meteohub,2013-01-02 17:22:00,
2013-01-02 09:27:00,48.0,38.7,30.22,South,169,4.0,7.0,70,0.00,,,0.00,meteohub,2013-01-02 17:27:00,
2013-01-02 09:32:00,48.4,38.7,30.22,SSW,194,3.0,7.0,69,0.00,,,0.00,meteohub,2013-01-02 17:32:00,
2013-01-02 09:37:00,48.7,38.3,30.22,SSE,162,2.0,7.0,67,0.00,,,0.00,meteohub,2013-01-02 17:37:00,
2013-01-02 09:42:00,49.1,38.7,30.22,SSW,207,1.0,5.0,67,0.00,,,0.00,meteohub,2013-01-02 17:42:00,
2013-01-02 09:47:00,49.3,38.5,30.22,SSE,160,1.0,5.0,66,0.00,,,0.00,meteohub,2013-01-02 17:47:00,
2013-01-02 09:52:00,49.5,37.8,30.22,SE,146,0.0,5.0,64,0.00,,,0.00,meteohub,2013-01-02 17:52:00,
2013-01-02 09:57:00,49.8,37.8,30.22,ESE,106,2.0,5.0,63,0.00,,,0.00,meteohub,2013-01-02 17:57:00,
2013-01-02 10:02:00,50.4,37.4,30.22,SE,131,3.0,4.0,61,0.00,,,0.00,meteohub,2013-01-02 18:02:00,
2013-01-02 10:07:00,50.5,36.7,30.22,SSE,148,2.0,4.0,59,0.00,,,0.00,meteohub,2013-01-02 18:07:00,
2013-01-02 10:12:00,51.1,36.9,30.22,ESE,117,0.0,5.0,58,0.00,,,0.00,meteohub,2013-01-02 18:12:00,
2013-01-02 10:17:00,51.1,36.3,30.23,ESE,103,1.0,10.0,57,0.00,,,0.00,meteohub,2013-01-02 18:17:00,
2013-01-02 10:22:00,50.7,34.2,30.23,East,89,3.0,10.0,53,0.00,,,0.00,meteohub,2013-01-02 18:22:00,
2013-01-02 10:27:00,51.1,36.0,30.23,SE,136,1.0,10.0,56,0.00,,,0.00,meteohub,2013-01-02 18:27:00,
2013-01-02 10:32:00,51.1,35.1,30.23,ESE,121,1.0,8.0,54,0.00,,,0.00,meteohub,2013-01-02 18:32:00,
2013-01-02 10:37:00,51.1,35.1,30.23,East,96,1.0,6.0,54,0.00,,,0.00,meteohub,2013-01-02 18:37:00,
2013-01-02 10:42:00,51.3,35.6,30.23,East,100,1.0,7.0,55,0.00,,,0.00,meteohub,2013-01-02 18:42:00,
2013-01-02 10:47:00,51.1,36.0,30.23,SE,139,4.0,7.0,56,0.00,,,0.00,meteohub,2013-01-02 18:47:00,
2013-01-02 10:52:00,51.1,36.0,30.22,SW,232,1.0,8.0,56,0.00,,,0.00,meteohub,2013-01-02 18:52:00,
2013-01-02 10:57:00,51.3,36.5,30.22,WSW,250,0.0,8.0,57,0.00,,,0.00,meteohub,2013-01-02 18:57:00,
2013-01-02 11:02:00,51.3,36.5,30.22,WSW,240,0.0,8.0,57,0.00,,,0.00,meteohub,2013-01-02 19:02:00,
2013-01-02 11:07:00,51.4,36.7,30.22,ENE,65,1.0,6.0,57,0.00,,,0.00,meteohub,2013-01-02 19:07:00,
2013-01-02 11:12:00,51.4,36.7,30.22,East,94,2.0,6.0,57,0.00,,,0.00,meteohub,2013-01-02 19:12:00,
2013-01-02 11:17:00,51.4,37.2,30.22,ENE,70,1.0,8.0,58,0.00,,,0.00,meteohub,2013-01-02 19:17:00,
2013-01-02 11:22:00,52.0,37.6,30.21,SE,139,4.0,8.0,58,0.00,,,0.00,meteohub,2013-01-02 19:22:00,
2013-01-02 11:27:00,51.8,37.0,30.21,WSW,243,0.0,6.0,57,0.00,,,0.00,meteohub,2013-01-02 19:27:00,
2013-01-02 11:32:00,51.6,36.5,30.21,South,184,1.0,7.0,56,0.00,,,0.00,meteohub,2013-01-02 19:32:00,
2013-01-02 11:37:00,51.8,37.0,30.21,ENE,63,3.0,7.0,57,0.00,,,0.00,meteohub,2013-01-02 19:37:00,
2013-01-02 11:42:00,52.2,36.5,30.21,South,184,1.0,7.0,55,0.00,,,0.00,meteohub,2013-01-02 19:42:00,
2013-01-02 11:47:00,52.2,36.0,30.20,WSW,246,2.0,7.0,54,0.00,,,0.00,meteohub,2013-01-02 19:47:00,
2013-01-02 11:52:00,52.3,35.8,30.20,SE,130,1.0,6.0,53,0.00,,,0.00,meteohub,2013-01-02 19:52:00,
2013-01-02 11:57:00,52.5,35.4,30.19,East,88,3.0,7.0,52,0.00,,,0.00,meteohub,2013-01-02 19:57:00,
2013-01-02 12:02:00,52.9,35.2,30.19,NE,41,3.0,7.0,51,0.00,,,0.00,meteohub,2013-01-02 20:02:00,
2013-01-02 12:07:00,53.1,34.9,30.19,ESE,117,3.0,7.0,50,0.00,,,0.00,meteohub,2013-01-02 20:07:00,
2013-01-02 12:12:00,53.2,35.1,30.19,ENE,78,1.0,6.0,50,0.00,,,0.00,meteohub,2013-01-02 20:12:00,
2013-01-02 12:17:00,53.2,35.6,30.19,East,100,2.0,7.0,51,0.00,,,0.00,meteohub,2013-01-02 20:17:00,
2013-01-02 12:22:00,53.2,35.6,30.19,East,100,1.0,7.0,51,0.00,,,0.00,meteohub,2013-01-02 20:22:00,
2013-01-02 12:27:00,53.2,35.1,30.19,SW,236,1.0,7.0,50,0.00,,,0.00,meteohub,2013-01-02 20:27:00,
2013-01-02 12:32:00,53.4,35.8,30.18,East,98,1.0,7.0,51,0.00,,,0.00,meteohub,2013-01-02 20:32:00,
2013-01-02 12:37:00,53.4,35.8,30.18,ESE,103,2.0,7.0,51,0.00,,,0.00,meteohub,2013-01-02 20:37:00,
2013-01-02 12:42:00,53.6,36.3,30.18,West,267,1.0,7.0,52,0.00,,,0.00,meteohub,2013-01-02 20:42:00,
2013-01-02 12:47:00,54.0,36.3,30.18,NW,322,2.0,7.0,51,0.00,,,0.00,meteohub,2013-01-02 20:47:00,
2013-01-02 12:52:00,54.0,36.7,30.18,East,101,2.0,7.0,52,0.00,,,0.00,meteohub,2013-01-02 20:52:00,
2013-01-02 12:57:00,54.1,36.3,30.17,ENE,70,3.0,6.0,51,0.00,,,0.00,meteohub,2013-01-02 20:57:00,
2013-01-02 13:02:00,53.8,36.1,30.17,South,179,1.0,6.0,51,0.00,,,0.00,meteohub,2013-01-02 21:02:00,
2013-01-02 13:07:00,53.8,36.1,30.17,East,86,2.0,6.0,51,0.00,,,0.00,meteohub,2013-01-02 21:07:00,
2013-01-02 13:12:00,53.8,35.6,30.17,ENE,73,4.0,6.0,50,0.00,,,0.00,meteohub,2013-01-02 21:12:00,
2013-01-02 13:17:00,54.0,36.3,30.16,East,94,6.0,6.0,51,0.00,,,0.00,meteohub,2013-01-02 21:17:00,
2013-01-02 13:22:00,53.8,36.1,30.16,SSE,148,1.0,6.0,51,0.00,,,0.00,meteohub,2013-01-02 21:22:00,
2013-01-02 13:27:00,54.1,35.4,30.16,SSW,198,2.0,6.0,49,0.00,,,0.00,meteohub,2013-01-02 21:27:00,
2013-01-02 13:32:00,54.1,36.0,30.16,East,101,1.0,6.0,50,0.00,,,0.00,meteohub,2013-01-02 21:32:00,
2013-01-02 13:37:00,54.3,35.6,30.16,ESE,119,2.0,5.0,49,0.00,,,0.00,meteohub,2013-01-02 21:37:00,
2013-01-02 13:42:00,54.1,36.3,30.16,South,178,1.0,5.0,51,0.00,,,0.00,meteohub,2013-01-02 21:42:00,
2013-01-02 13:47:00,54.1,36.0,30.16,SE,138,2.0,5.0,50,0.00,,,0.00,meteohub,2013-01-02 21:47:00,
2013-01-02 13:52:00,54.3,35.6,30.15,SE,134,2.0,5.0,49,0.00,,,0.00,meteohub,2013-01-02 21:52:00,
2013-01-02 13:57:00,54.9,36.1,30.15,SSE,153,2.0,5.0,49,0.00,,,0.00,meteohub,2013-01-02 21:57:00,
2013-01-02 14:02:00,55.0,36.1,30.15,SE,134,0.0,5.0,49,0.00,,,0.00,meteohub,2013-01-02 22:02:00,
2013-01-02 14:07:00,55.2,35.4,30.15,SE,138,1.0,5.0,47,0.00,,,0.00,meteohub,2013-01-02 22:07:00,
2013-01-02 14:12:00,55.6,35.1,30.15,East,84,6.0,6.0,46,0.00,,,0.00,meteohub,2013-01-02 22:12:00,
2013-01-02 14:17:00,55.2,34.9,30.15,East,86,0.0,6.0,46,0.00,,,0.00,meteohub,2013-01-02 22:17:00,
2013-01-02 14:22:00,55.9,34.9,30.15,East,84,0.0,6.0,45,0.00,,,0.00,meteohub,2013-01-02 22:22:00,
2013-01-02 14:27:00,55.4,34.3,30.15,East,88,2.0,6.0,45,0.00,,,0.00,meteohub,2013-01-02 22:27:00,
2013-01-02 14:32:00,54.9,34.5,30.14,ESE,110,5.0,5.0,46,0.00,,,0.00,meteohub,2013-01-02 22:32:00,
2013-01-02 14:37:00,54.7,34.9,30.14,WSW,250,0.0,5.0,47,0.00,,,0.00,meteohub,2013-01-02 22:37:00,
2013-01-02 14:42:00,54.5,35.2,30.14,SSE,165,1.0,5.0,48,0.00,,,0.00,meteohub,2013-01-02 22:42:00,
2013-01-02 14:47:00,54.1,34.3,30.14,East,86,4.0,6.0,47,0.00,,,0.00,meteohub,2013-01-02 22:47:00,
2013-01-02 14:52:00,54.3,35.1,30.14,SE,134,0.0,6.0,48,0.00,,,0.00,meteohub,2013-01-02 22:52:00,
2013-01-02 14:57:00,54.3,34.5,30.14,ENE,76,2.0,6.0,47,0.00,,,0.00,meteohub,2013-01-02 22:57:00,
2013-01-02 15:02:00,54.1,35.4,30.14,East,96,1.0,5.0,49,0.00,,,0.00,meteohub,2013-01-02 23:02:00,
2013-01-02 15:07:00,54.3,35.6,30.14,ESE,110,1.0,5.0,49,0.00,,,0.00,meteohub,2013-01-02 23:07:00,
2013-01-02 15:12:00,54.1,34.3,30.14,ESE,121,0.0,5.0,47,0.00,,,0.00,meteohub,2013-01-02 23:12:00,
2013-01-02 15:17:00,54.1,33.8,30.14,SW,214,0.0,5.0,46,0.00,,,0.00,meteohub,2013-01-02 23:17:00,
2013-01-02 15:22:00,54.1,33.8,30.14,SE,135,0.0,5.0,46,0.00,,,0.00,meteohub,2013-01-02 23:22:00,
2013-01-02 15:28:00,54.3,33.4,30.14,ESE,105,1.0,5.0,45,0.00,,,0.00,meteohub,2013-01-02 23:28:00,
2013-01-02 15:33:00,54.3,33.4,30.13,SE,127,1.0,4.0,45,0.00,,,0.00,meteohub,2013-01-02 23:33:00,
2013-01-02 15:38:00,54.3,33.4,30.14,East,99,1.0,4.0,45,0.00,,,0.00,meteohub,2013-01-02 23:38:00,
2013-01-02 15:43:00,54.5,33.6,30.13,ESE,117,2.0,4.0,45,0.00,,,0.00,meteohub,2013-01-02 23:43:00,
2013-01-02 15:48:00,54.3,32.9,30.13,SW,224,1.0,4.0,44,0.00,,,0.00,meteohub,2013-01-02 23:48:00,
2013-01-02 15:53:00,54.1,32.7,30.13,South,184,2.0,4.0,44,0.00,,,0.00,meteohub,2013-01-02 23:53:00,
2013-01-02 15:58:00,54.1,33.3,30.13,SE,142,1.0,4.0,45,0.00,,,0.00,meteohub,2013-01-02 23:58:00,
2013-01-02 16:04:00,54.1,34.9,30.13,ESE,113,3.0,4.0,48,0.00,,,0.00,meteohub,2013-01-03 00:04:00,
2013-01-02 16:09:00,54.1,35.4,30.13,ESE,107,0.0,4.0,49,0.00,,,0.00,meteohub,2013-01-03 00:09:00,
2013-01-02 16:14:00,53.8,36.1,30.13,ESE,103,0.0,4.0,51,0.00,,,0.00,meteohub,2013-01-03 00:14:00,
2013-01-02 16:19:00,53.8,36.1,30.13,SSE,149,0.0,4.0,51,0.00,,,0.00,meteohub,2013-01-03 00:19:00,
2013-01-02 16:24:00,53.4,35.8,30.13,SE,136,0.0,2.0,51,0.00,,,0.00,meteohub,2013-01-03 00:24:00,
2013-01-02 16:29:00,53.2,37.0,30.13,ENE,71,1.0,2.0,54,0.00,,,0.00,meteohub,2013-01-03 00:29:00,
2013-01-02 16:36:00,53.1,37.8,30.13,ESE,116,0.0,3.0,56,0.00,,,0.00,meteohub,2013-01-03 00:36:00,
2013-01-02 16:41:00,52.5,39.9,30.13,NNW,332,0.0,3.0,62,0.00,,,0.00,meteohub,2013-01-03 00:41:00,
2013-01-02 16:46:00,52.2,40.8,30.13,NNW,332,0.0,3.0,65,0.00,,,0.00,meteohub,2013-01-03 00:46:00,
2013-01-02 16:51:00,51.8,40.8,30.13,NNW,332,0.0,3.0,66,0.00,,,0.00,meteohub,2013-01-03 00:51:00,
2013-01-02 16:56:00,51.3,40.3,30.13,NNW,330,0.0,1.0,66,0.00,,,0.00,meteohub,2013-01-03 00:56:00,
2013-01-02 17:01:00,50.7,39.7,30.13,North,352,1.0,1.0,66,0.00,,,0.00,meteohub,2013-01-03 01:01:00,
2013-01-02 17:07:00,50.7,39.4,30.13,South,186,0.0,4.0,65,0.00,,,0.00,meteohub,2013-01-03 01:07:00,
2013-01-02 17:12:00,50.7,40.1,30.12,ESE,113,0.0,4.0,67,0.00,,,0.00,meteohub,2013-01-03 01:12:00,
2013-01-02 17:17:00,50.5,40.8,30.13,NE,43,1.0,4.0,69,0.00,,,0.00,meteohub,2013-01-03 01:17:00,
2013-01-02 17:22:00,50.4,41.0,30.13,East,94,1.0,4.0,70,0.00,,,0.00,meteohub,2013-01-03 01:22:00,
2013-01-02 17:27:00,50.4,41.7,30.13,NNW,347,0.0,4.0,72,0.00,,,0.00,meteohub,2013-01-03 01:27:00,
2013-01-02 17:32:00,50.2,40.1,30.13,NNW,347,1.0,4.0,68,0.00,,,0.00,meteohub,2013-01-03 01:32:00,
2013-01-02 17:37:00,50.4,39.7,30.13,ESE,103,0.0,4.0,67,0.00,,,0.00,meteohub,2013-01-03 01:37:00,
2013-01-02 17:42:00,50.2,39.2,30.13,SE,142,1.0,4.0,66,0.00,,,0.00,meteohub,2013-01-03 01:42:00,
2013-01-02 17:47:00,49.8,39.4,30.13,East,100,0.0,5.0,67,0.00,,,0.00,meteohub,2013-01-03 01:47:00,
2013-01-02 17:52:00,49.8,38.5,30.13,NNE,19,4.0,5.0,65,0.00,,,0.00,meteohub,2013-01-03 01:52:00,
2013-01-02 17:57:00,49.8,38.5,30.14,North,6,4.0,5.0,65,0.00,,,0.00,meteohub,2013-01-03 01:57:00,
2013-01-02 18:02:00,49.8,38.5,30.14,North,352,1.0,7.0,65,0.00,,,0.00,meteohub,2013-01-03 02:02:00,
2013-01-02 18:07:00,49.8,38.1,30.14,WSW,238,1.0,7.0,64,0.00,,,0.00,meteohub,2013-01-03 02:07:00,
2013-01-02 18:12:00,49.6,38.3,30.13,NNE,26,1.0,7.0,65,0.00,,,0.00,meteohub,2013-01-03 02:12:00,
2013-01-02 18:17:00,49.6,37.9,30.14,ENE,72,0.0,4.0,64,0.00,,,0.00,meteohub,2013-01-03 02:17:00,
2013-01-02 18:22:00,49.5,38.1,30.14,NNE,18,1.0,5.0,65,0.00,,,0.00,meteohub,2013-01-03 02:22:00,
2013-01-02 18:27:00,49.5,38.1,30.13,NW,321,2.0,5.0,65,0.00,,,0.00,meteohub,2013-01-03 02:27:00,
2013-01-02 18:32:00,49.3,37.9,30.14,WNW,300,0.0,5.0,65,0.00,,,0.00,meteohub,2013-01-03 02:32:00,
2013-01-02 18:37:00,49.3,37.9,30.13,SE,138,0.0,5.0,65,0.00,,,0.00,meteohub,2013-01-03 02:37:00,
2013-01-02 18:42:00,49.1,37.8,30.13,WSW,248,2.0,4.0,65,0.00,,,0.00,meteohub,2013-01-03 02:42:00,
2013-01-02 18:47:00,48.9,37.8,30.14,NW,305,0.0,4.0,65,0.00,,,0.00,meteohub,2013-01-03 02:47:00,
2013-01-02 18:53:00,48.9,37.2,30.13,North,352,0.0,4.0,64,0.00,,,0.00,meteohub,2013-01-03 02:53:00,
2013-01-02 18:58:00,48.9,37.2,30.14,NE,51,0.0,4.0,64,0.00,,,0.00,meteohub,2013-01-03 02:58:00,
2013-01-02 19:03:00,48.7,37.6,30.14,NW,306,0.0,3.0,65,0.00,,,0.00,meteohub,2013-01-03 03:03:00,
2013-01-02 19:08:00,49.1,37.0,30.14,East,94,3.0,5.0,63,0.00,,,0.00,meteohub,2013-01-03 03:08:00,
2013-01-02 19:13:00,49.3,37.2,30.14,SE,138,1.0,5.0,63,0.00,,,0.00,meteohub,2013-01-03 03:13:00,
2013-01-02 19:18:00,49.1,37.0,30.14,ESE,110,0.0,7.0,63,0.00,,,0.00,meteohub,2013-01-03 03:18:00,
2013-01-02 19:23:00,48.9,36.9,30.14,NE,49,0.0,7.0,63,0.00,,,0.00,meteohub,2013-01-03 03:23:00,
2013-01-02 19:29:00,48.7,37.6,30.14,NW,307,1.0,5.0,65,0.00,,,0.00,meteohub,2013-01-03 03:29:00,
2013-01-02 19:36:00,48.7,37.6,30.14,ESE,104,1.0,4.0,65,0.00,,,0.00,meteohub,2013-01-03 03:36:00,
2013-01-02 19:37:00,48.6,37.4,30.14,ESE,104,0.0,4.0,65,0.00,,,0.00,meteohub,2013-01-03 03:37:00,
2013-01-02 19:42:00,48.4,37.2,30.14,SSE,156,1.0,4.0,65,0.00,,,0.00,meteohub,2013-01-03 03:42:00,
2013-01-02 19:47:00,48.2,37.0,30.14,NE,46,3.0,3.0,65,0.00,,,0.00,meteohub,2013-01-03 03:47:00,
2013-01-02 19:52:00,48.0,36.9,30.14,NE,34,0.0,4.0,65,0.00,,,0.00,meteohub,2013-01-03 03:52:00,
2013-01-02 19:57:00,48.2,37.0,30.14,SE,142,1.0,5.0,65,0.00,,,0.00,meteohub,2013-01-03 03:57:00,
2013-01-02 20:02:00,48.4,37.2,30.14,SE,142,0.0,5.0,65,0.00,,,0.00,meteohub,2013-01-03 04:02:00,
2013-01-02 20:07:00,48.6,37.4,30.14,SE,135,0.0,4.0,65,0.00,,,0.00,meteohub,2013-01-03 04:07:00,
2013-01-02 20:12:00,48.4,37.6,30.14,East,84,0.0,4.0,66,0.00,,,0.00,meteohub,2013-01-03 04:12:00,
2013-01-02 20:17:00,47.8,37.0,30.14,SSW,197,0.0,4.0,66,0.00,,,0.00,meteohub,2013-01-03 04:17:00,
2013-01-02 20:22:00,47.7,37.2,30.14,SSW,193,1.0,2.0,67,0.00,,,0.00,meteohub,2013-01-03 04:22:00,
2013-01-02 20:27:00,47.5,37.0,30.14,NNW,342,0.0,3.0,67,0.00,,,0.00,meteohub,2013-01-03 04:27:00,
2013-01-02 20:32:00,46.8,37.2,30.14,SW,214,0.0,3.0,69,0.00,,,0.00,meteohub,2013-01-03 04:32:00,
2013-01-02 20:37:00,46.6,37.0,30.15,East,91,2.0,3.0,69,0.00,,,0.00,meteohub,2013-01-03 04:37:00,
2013-01-02 20:42:00,46.8,37.2,30.15,North,356,0.0,2.0,69,0.00,,,0.00,meteohub,2013-01-03 04:42:00,
2013-01-02 20:47:00,46.6,37.0,30.14,SSW,205,0.0,2.0,69,0.00,,,0.00,meteohub,2013-01-03 04:47:00,
2013-01-02 20:52:00,46.6,37.0,30.14,South,176,1.0,3.0,69,0.00,,,0.00,meteohub,2013-01-03 04:52:00,
2013-01-02 20:57:00,46.4,37.2,30.14,SSE,151,0.0,3.0,70,0.00,,,0.00,meteohub,2013-01-03 04:57:00,
2013-01-02 21:00:00,46.2,37.0,30.14,SSE,150,0.0,3.0,70,0.00,,,0.00,meteohub,2013-01-03 05:00:00,
2013-01-02 21:02:00,46.0,36.9,30.15,SE,146,0.0,2.0,70,0.00,,,0.00,meteohub,2013-01-03 05:02:00,
2013-01-02 21:12:00,45.9,37.4,30.15,ESE,118,1.0,2.0,72,0.00,,,0.00,meteohub,2013-01-03 05:12:00,
2013-01-02 21:15:00,46.0,37.6,30.15,East,86,1.0,2.0,72,0.00,,,0.00,meteohub,2013-01-03 05:15:00,
2013-01-02 21:18:00,46.2,37.8,30.15,East,98,0.0,2.0,72,0.00,,,0.00,meteohub,2013-01-03 05:18:00,
2013-01-02 21:23:00,46.2,37.4,30.15,SSE,159,0.0,3.0,71,0.00,,,0.00,meteohub,2013-01-03 05:23:00,
2013-01-02 21:28:00,46.0,37.6,30.15,SSE,151,0.0,3.0,72,0.00,,,0.00,meteohub,2013-01-03 05:28:00,
2013-01-02 21:33:00,45.7,37.6,30.15,SSE,151,0.0,2.0,73,0.00,,,0.00,meteohub,2013-01-03 05:33:00,
2013-01-02 21:38:00,45.0,37.2,30.15,SSE,150,0.0,1.0,74,0.00,,,0.00,meteohub,2013-01-03 05:38:00,
2013-01-02 21:43:00,44.2,36.9,30.15,SSE,149,0.0,1.0,75,0.00,,,0.00,meteohub,2013-01-03 05:43:00,
2013-01-02 21:48:00,43.9,36.9,30.15,SSE,149,0.0,0.0,76,0.00,,,0.00,meteohub,2013-01-03 05:48:00,
2013-01-02 21:53:00,43.7,37.0,30.15,NW,320,0.0,0.0,77,0.00,,,0.00,meteohub,2013-01-03 05:53:00,
2013-01-02 21:59:00,43.3,36.7,30.15,NW,322,0.0,1.0,77,0.00,,,0.00,meteohub,2013-01-03 05:59:00,
2013-01-02 22:04:00,43.3,37.2,30.15,West,269,1.0,1.0,79,0.00,,,0.00,meteohub,2013-01-03 06:04:00,
2013-01-02 22:09:00,43.3,37.2,30.16,NW,318,1.0,1.0,79,0.00,,,0.00,meteohub,2013-01-03 06:09:00,
2013-01-02 22:14:00,43.3,37.2,30.15,SW,224,0.0,1.0,79,0.00,,,0.00,meteohub,2013-01-03 06:14:00,
2013-01-02 22:19:00,43.5,37.4,30.16,SSW,205,0.0,1.0,79,0.00,,,0.00,meteohub,2013-01-03 06:19:00,
2013-01-02 22:24:00,43.3,36.9,30.16,SSW,205,0.0,1.0,78,0.00,,,0.00,meteohub,2013-01-03 06:24:00,
2013-01-02 22:29:00,43.5,37.0,30.16,SSW,205,0.0,1.0,78,0.00,,,0.00,meteohub,2013-01-03 06:29:00,
2013-01-02 22:34:00,43.5,36.9,30.16,SW,235,0.0,1.0,77,0.00,,,0.00,meteohub,2013-01-03 06:34:00,
2013-01-02 22:39:00,43.7,37.0,30.16,SE,125,0.0,1.0,77,0.00,,,0.00,meteohub,2013-01-03 06:39:00,
2013-01-02 22:44:00,44.6,36.9,30.16,NW,316,1.0,1.0,74,0.00,,,0.00,meteohub,2013-01-03 06:44:00,
2013-01-02 22:50:00,45.9,36.7,30.16,ESE,104,1.0,5.0,70,0.00,,,0.00,meteohub,2013-01-03 06:50:00,
2013-01-02 22:55:00,46.2,36.7,30.16,NW,321,1.0,5.0,69,0.00,,,0.00,meteohub,2013-01-03 06:55:00,
2013-01-02 23:00:00,46.2,36.3,30.16,ESE,107,0.0,4.0,68,0.00,,,0.00,meteohub,2013-01-03 07:00:00,
2013-01-02 23:05:00,46.0,36.5,30.16,SSE,153,0.0,4.0,69,0.00,,,0.00,meteohub,2013-01-03 07:05:00,
2013-01-02 23:10:00,45.9,36.3,30.16,NNE,21,0.0,2.0,69,0.00,,,0.00,meteohub,2013-01-03 07:10:00,
2013-01-02 23:15:00,45.7,36.5,30.16,East,92,0.0,2.0,70,0.00,,,0.00,meteohub,2013-01-03 07:15:00,
2013-01-02 23:20:00,45.1,36.3,30.16,ESE,115,0.0,1.0,71,0.00,,,0.00,meteohub,2013-01-03 07:20:00,
2013-01-02 23:25:00,45.0,36.5,30.16,ESE,115,0.0,1.0,72,0.00,,,0.00,meteohub,2013-01-03 07:25:00,
2013-01-02 23:31:00,44.4,36.3,30.16,SE,134,1.0,1.0,73,0.00,,,0.00,meteohub,2013-01-03 07:31:00,
2013-01-02 23:36:00,44.2,36.5,30.16,SW,235,0.0,1.0,74,0.00,,,0.00,meteohub,2013-01-03 07:36:00,
2013-01-02 23:41:00,44.1,36.7,30.16,East,82,0.0,1.0,75,0.00,,,0.00,meteohub,2013-01-03 07:41:00,
2013-01-02 23:46:00,44.1,36.7,30.16,East,84,0.0,2.0,75,0.00,,,0.00,meteohub,2013-01-03 07:46:00,
2013-01-02 23:51:00,44.2,36.9,30.16,West,274,0.0,2.0,75,0.00,,,0.00,meteohub,2013-01-03 07:51:00,
2013-01-02 23:56:00,44.2,36.9,30.16,SE,142,0.0,2.0,75,0.00,,,0.00,meteohub,2013-01-03 07:56:00,